New Canton, Illinois
Current Conditions -  °F | °C
As of 1:35 AM on Wednesday 22 Oct 2014 (Local Time) from KPPQ Reporting Station
Clear Clear  
Wind Chill: 42°   Ceiling: Unl
Heat Index: 45°   Visibility: 10mi
Dew Point: 40°   Wind: 5mph
Humidity: 84%   Direction: 80°E
Pressure: 30.25"   Gusts: NA
Location:  39.64°N, 91.1°W
Report Text: KPPQ 220635Z AUTO 08004KT 10SM CLR 07/05 A3025 RMK AO2 T00700045
Loading
Personal Weather Stations






























Interactive Weather Map
Tropical Storm Tracking
New forecast layout! Learn more

10-Day Weather Forecast

Advertisements
Track Severe Weather on mobile